createdAt,value
2022-07-29T00:01:55.184Z,97.30
2022-07-29T00:06:57.634Z,97.90
2022-07-29T00:12:02.197Z,97.90
2022-07-29T00:17:04.808Z,98.50
2022-07-29T00:22:07.254Z,98.80
2022-07-29T00:27:09.702Z,99.10
2022-07-29T00:32:12.411Z,99.60
2022-07-29T00:37:14.921Z,99.70
2022-07-29T00:42:17.745Z,99.90
2022-07-29T00:47:20.493Z,99.90
2022-07-29T00:52:23.076Z,99.90
2022-07-29T00:57:25.767Z,99.90
2022-07-29T01:02:28.395Z,99.90
2022-07-29T01:07:33.342Z,99.90
2022-07-29T01:12:37.987Z,99.90
2022-07-29T01:17:52.845Z,99.90
2022-07-29T01:23:21.591Z,99.90
2022-07-29T01:29:01.517Z,99.90
2022-07-29T01:34:13.079Z,99.90
2022-07-29T01:39:24.441Z,99.90
2022-07-29T01:44:34.060Z,99.90
2022-07-29T01:49:40.579Z,99.90
2022-07-29T01:54:53.259Z,99.90
2022-07-29T01:59:58.169Z,99.90
2022-07-29T02:05:04.357Z,99.90
2022-07-29T02:10:09.883Z,99.90
2022-07-29T02:15:13.118Z,99.90
2022-07-29T02:20:17.767Z,99.90
2022-07-29T02:25:26.027Z,99.90
2022-07-29T02:30:43.304Z,99.90
2022-07-29T02:35:47.726Z,99.90
2022-07-29T02:40:54.642Z,99.90
2022-07-29T02:46:00.120Z,99.90
2022-07-29T02:51:43.708Z,99.90
2022-07-29T02:56:45.853Z,99.90
2022-07-29T03:01:49.055Z,99.90
2022-07-29T03:06:53.472Z,99.90
2022-07-29T03:11:57.961Z,99.90
2022-07-29T03:17:00.974Z,99.90
2022-07-29T03:22:03.667Z,99.90
2022-07-29T03:27:06.588Z,99.90
2022-07-29T03:32:09.161Z,99.90
2022-07-29T03:37:11.658Z,99.90
2022-07-29T03:42:17.306Z,99.90
2022-07-29T03:47:43.656Z,99.90
2022-07-29T03:52:47.450Z,99.90
2022-07-29T03:57:51.598Z,99.90
2022-07-29T04:02:54.248Z,99.90
2022-07-29T04:07:56.862Z,99.90
2022-07-29T04:13:00.913Z,99.90
2022-07-29T04:18:03.497Z,99.90
2022-07-29T04:23:05.923Z,99.90
2022-07-29T04:28:09.353Z,99.90
2022-07-29T04:33:11.836Z,99.90
2022-07-29T04:38:15.686Z,99.90
2022-07-29T04:43:22.487Z,99.90
2022-07-29T04:48:28.682Z,99.90
2022-07-29T04:53:31.647Z,99.90
2022-07-29T04:58:37.253Z,99.90
2022-07-29T05:03:39.745Z,99.90
2022-07-29T05:08:42.243Z,99.90
2022-07-29T05:13:45.769Z,99.90
2022-07-29T05:18:49.642Z,99.90
2022-07-29T05:23:52.041Z,99.90
2022-07-29T05:28:55.494Z,99.90
2022-07-29T05:33:58.133Z,99.90
2022-07-29T05:39:00.588Z,99.90
2022-07-29T05:44:03.240Z,99.90
2022-07-29T05:49:07.566Z,99.90
2022-07-29T05:54:10.494Z,99.90
2022-07-29T05:59:17.805Z,99.90
2022-07-29T06:04:21.259Z,99.90
2022-07-29T06:09:24.123Z,99.90
2022-07-29T06:14:27.682Z,99.90
2022-07-29T06:19:30.216Z,99.90
2022-07-29T06:24:32.680Z,99.90
2022-07-29T06:29:35.244Z,99.80
2022-07-29T06:34:37.670Z,98.60
2022-07-29T06:39:40.116Z,97.80
2022-07-29T06:44:42.910Z,97.40
2022-07-29T06:49:45.352Z,97.30
2022-07-29T06:54:49.330Z,97.30
2022-07-29T06:59:51.759Z,96.40
2022-07-29T07:04:54.370Z,95.80
2022-07-29T07:09:56.844Z,95.50
2022-07-29T07:14:59.271Z,95.80
2022-07-29T07:20:01.881Z,95.10
2022-07-29T07:25:04.579Z,95.30
2022-07-29T07:30:07.999Z,94.40
2022-07-29T07:35:11.915Z,95.30
2022-07-29T07:40:18.528Z,95.40
2022-07-29T07:45:21.493Z,95.50
2022-07-29T07:50:24.125Z,95.60
2022-07-29T07:55:27.288Z,96.10
2022-07-29T08:00:29.955Z,94.30
2022-07-29T08:05:32.648Z,93.80
2022-07-29T08:10:54.399Z,93.80
2022-07-29T08:16:18.154Z,93.30
2022-07-29T08:21:20.662Z,92.30
2022-07-29T08:26:23.721Z,92.70
2022-07-29T08:31:26.349Z,92.00
2022-07-29T08:36:28.998Z,91.50
2022-07-29T08:41:32.394Z,91.00
2022-07-29T08:46:35.098Z,91.20
2022-07-29T08:51:48.539Z,91.30
2022-07-29T08:56:52.971Z,91.00
2022-07-29T09:02:00.724Z,91.00
2022-07-29T09:07:05.940Z,90.50
2022-07-29T09:12:09.283Z,90.80
2022-07-29T09:17:11.768Z,90.00
2022-07-29T09:22:31.280Z,90.30
2022-07-29T09:27:34.701Z,90.10
2022-07-29T09:33:02.279Z,88.20
2022-07-29T09:38:14.908Z,87.50
2022-07-29T09:43:17.355Z,87.40
2022-07-29T09:48:26.002Z,87.10
2022-07-29T09:53:37.547Z,86.30
2022-07-29T09:58:41.172Z,84.00
2022-07-29T10:03:54.069Z,84.70
2022-07-29T10:09:07.553Z,84.10
2022-07-29T10:14:10.218Z,83.70
2022-07-29T10:19:14.799Z,83.30
2022-07-29T10:24:17.526Z,82.60
2022-07-29T10:29:20.090Z,82.10
2022-07-29T10:34:34.210Z,80.90
2022-07-29T10:40:24.917Z,79.20
2022-07-29T10:45:27.686Z,78.90
2022-07-29T10:51:05.395Z,78.50
2022-07-29T10:56:28.272Z,78.40
2022-07-29T11:01:37.281Z,77.70
2022-07-29T11:07:05.226Z,77.00
2022-07-29T11:12:42.960Z,76.40
2022-07-29T11:17:54.645Z,75.80
2022-07-29T11:22:57.136Z,77.30
2022-07-29T11:28:22.731Z,78.20
2022-07-29T11:33:54.037Z,76.10
2022-07-29T11:39:27.558Z,74.40
2022-07-29T11:50:52.526Z,74.70
2022-07-29T11:55:58.084Z,73.20
2022-07-29T12:01:04.280Z,74.10
2022-07-29T12:06:18.095Z,74.10
2022-07-29T12:07:03.897Z,74.50
2022-07-29T12:11:23.279Z,73.40
2022-07-29T12:16:37.121Z,75.30
2022-07-29T12:21:56.301Z,73.70
2022-07-29T12:27:02.697Z,73.40
2022-07-29T12:32:14.242Z,72.90
2022-07-29T12:37:18.108Z,72.60
2022-07-29T12:42:20.687Z,73.90
2022-07-29T12:47:26.380Z,72.90
2022-07-29T12:52:34.054Z,73.10
2022-07-29T12:57:53.474Z,73.40
2022-07-29T13:02:57.876Z,73.30
2022-07-29T13:08:21.980Z,72.40
2022-07-29T13:13:26.538Z,71.00
2022-07-29T13:18:33.566Z,71.20
2022-07-29T13:23:38.244Z,69.50
2022-07-29T13:28:41.043Z,69.90
2022-07-29T13:33:47.258Z,69.40
2022-07-29T13:38:49.852Z,68.00
2022-07-29T13:43:52.573Z,67.80
2022-07-29T13:48:55.370Z,69.10
2022-07-29T13:53:57.933Z,66.70
2022-07-29T13:59:01.248Z,69.60
2022-07-29T14:04:05.165Z,68.70
2022-07-29T14:09:09.971Z,68.40
2022-07-29T14:14:12.735Z,68.30
2022-07-29T14:19:15.471Z,68.20
2022-07-29T14:24:21.713Z,66.80
2022-07-29T14:29:37.038Z,68.40
2022-07-29T14:34:41.134Z,69.40
2022-07-29T14:39:43.671Z,68.80
2022-07-29T14:44:46.247Z,68.90
2022-07-29T14:49:49.483Z,67.40
2022-07-29T14:54:52.194Z,68.80
2022-07-29T14:59:54.820Z,67.30
2022-07-29T15:04:57.700Z,67.60
2022-07-29T15:10:03.701Z,68.90
2022-07-29T15:15:06.781Z,68.60
2022-07-29T15:20:10.034Z,69.70
2022-07-29T15:25:12.814Z,69.20
2022-07-29T15:30:30.940Z,69.90
2022-07-29T15:35:40.414Z,69.40
2022-07-29T15:40:44.639Z,68.70
2022-07-29T15:46:06.018Z,69.30
2022-07-29T15:51:09.000Z,69.70
2022-07-29T15:56:11.871Z,71.20
2022-07-29T16:01:14.760Z,69.80
2022-07-29T16:06:18.036Z,69.70
2022-07-29T16:11:20.928Z,69.50
2022-07-29T16:16:23.798Z,70.00
2022-07-29T16:21:26.619Z,69.90
2022-07-29T16:26:29.263Z,69.30
2022-07-29T16:31:32.387Z,69.70
2022-07-29T16:36:34.871Z,69.30
2022-07-29T16:41:40.146Z,69.50
2022-07-29T16:46:44.913Z,69.80
2022-07-29T16:51:49.999Z,71.30
2022-07-29T16:56:52.886Z,69.70
2022-07-29T17:01:55.564Z,69.60
2022-07-29T17:06:58.665Z,70.30
2022-07-29T17:12:01.869Z,70.00
2022-07-29T17:17:13.810Z,70.80
2022-07-29T17:22:23.600Z,70.50
2022-07-29T17:27:26.043Z,71.00
2022-07-29T17:32:28.482Z,70.90
2022-07-29T17:37:30.970Z,72.60
2022-07-29T17:42:33.723Z,74.30
2022-07-29T17:47:38.525Z,74.00
2022-07-29T17:52:41.749Z,75.40
2022-07-29T17:57:44.273Z,75.90
2022-07-29T18:02:47.108Z,77.00
2022-07-29T18:07:50.086Z,78.00
2022-07-29T18:12:56.452Z,78.40
2022-07-29T18:17:59.003Z,78.50
2022-07-29T18:23:02.138Z,78.80
2022-07-29T18:28:05.310Z,79.40
2022-07-29T18:33:21.811Z,80.10
2022-07-29T18:38:24.470Z,80.80
2022-07-29T18:43:26.889Z,81.40
2022-07-29T18:48:29.401Z,82.00
2022-07-29T18:53:31.889Z,82.30
2022-07-29T18:58:39.606Z,82.70
2022-07-29T19:03:42.091Z,82.80
2022-07-29T19:08:44.549Z,83.80
2022-07-29T19:13:47.871Z,84.10
2022-07-29T19:18:50.358Z,84.80
2022-07-29T19:24:01.556Z,85.50
2022-07-29T19:29:10.106Z,86.00
2022-07-29T19:34:12.752Z,86.80
2022-07-29T19:39:15.525Z,87.40
2022-07-29T19:44:20.982Z,87.70
2022-07-29T19:49:23.626Z,88.90
2022-07-29T19:54:26.912Z,88.70
2022-07-29T19:59:29.555Z,89.30
2022-07-29T20:04:32.230Z,89.60
2022-07-29T20:09:37.047Z,90.00
2022-07-29T20:14:39.870Z,90.50
2022-07-29T20:19:45.629Z,90.30
2022-07-29T20:24:48.256Z,90.60
2022-07-29T20:29:50.698Z,90.90
2022-07-29T20:34:53.184Z,91.10
2022-07-29T20:39:55.601Z,91.40
2022-07-29T20:44:58.587Z,91.60
2022-07-29T20:50:01.236Z,91.80
2022-07-29T20:55:04.061Z,92.00
2022-07-29T21:00:09.296Z,92.30
2022-07-29T21:05:11.975Z,92.40
2022-07-29T21:10:15.048Z,92.70
2022-07-29T21:15:20.865Z,92.80
2022-07-29T21:20:23.345Z,93.20
2022-07-29T21:25:26.523Z,93.40
2022-07-29T21:30:29.021Z,93.60
2022-07-29T21:36:06.280Z,93.90
2022-07-29T21:40:54.461Z,94.20
2022-07-29T21:45:58.199Z,94.40
2022-07-29T21:51:00.695Z,95.00
2022-07-29T21:56:03.180Z,95.00
2022-07-29T22:01:06.859Z,95.40
2022-07-29T22:06:16.646Z,95.80
2022-07-29T22:11:21.042Z,96.00
2022-07-29T22:16:23.967Z,96.40
2022-07-29T22:21:26.608Z,96.60
2022-07-29T22:26:29.149Z,96.80
2022-07-29T22:31:31.686Z,97.20
2022-07-29T22:36:34.132Z,97.30
2022-07-29T22:41:36.650Z,97.50
2022-07-29T22:46:39.127Z,97.60
2022-07-29T22:51:41.641Z,97.80
2022-07-29T22:56:44.141Z,98.00
2022-07-29T23:01:46.653Z,98.10
2022-07-29T23:06:49.842Z,98.50
2022-07-29T23:11:52.317Z,98.80
2022-07-29T23:16:55.277Z,99.20
2022-07-29T23:21:57.807Z,99.40
2022-07-29T23:27:00.455Z,99.80
2022-07-29T23:32:03.320Z,99.90
2022-07-29T23:37:06.042Z,99.90
2022-07-29T23:42:08.478Z,99.90
2022-07-29T23:47:10.945Z,99.90
2022-07-29T23:52:13.421Z,99.90
2022-07-29T23:57:15.867Z,99.90
